DAL2106 KMIA-KJFK
Flight info
| Callsign | DAL2106 |
|---|---|
| Flight time | 2h 22m |
| Altitude | 39000 |
| Route | ALTNN2 DUCEN Q87 JROSS JOHAR Q109 DFENC SAWED Q108 SIE CAMRN4 |
| Aircraft | A333/H-SDE3GHIJ2J3J5M1RVWXY/LB2D1 |
Departure
| Time | 2026-05-05 03:51 |
|---|---|
| Airport | Miami International Airport (KMIA) |
Arrival
| Time | 2026-05-05 06:13 |
|---|---|
| Airport | John F. Kennedy International Airport (KJFK) |
| Time | Latitude | Longitude | Altitude | Speed | Heading |
|---|---|---|---|---|---|
| 2026-05-05 03:08 | 25.79106 | -80.27421 | 19 ft | 0 kts | 111° |
| 2026-05-05 03:19 | 25.79113 | -80.27440 | 21 ft | 4 kts | 110° |
| 2026-05-05 03:20 | 25.79121 | -80.27464 | 21 ft | 3 kts | 111° |
| 2026-05-05 03:20 | 25.79135 | -80.27487 | 23 ft | 4 kts | 152° |
| 2026-05-05 03:20 | 25.79160 | -80.27495 | 21 ft | 3 kts | 176° |
| 2026-05-05 03:20 | 25.79164 | -80.27495 | 21 ft | 5 kts | 177° |
| 2026-05-05 03:24 | 25.79158 | -80.27495 | 19 ft | 2 kts | 177° |
| 2026-05-05 03:24 | 25.79142 | -80.27494 | 21 ft | 3 kts | 177° |
| 2026-05-05 03:24 | 25.79115 | -80.27493 | 19 ft | 4 kts | 177° |
| 2026-05-05 03:25 | 25.79081 | -80.27491 | 20 ft | 6 kts | 178° |
| 2026-05-05 03:25 | 25.79036 | -80.27489 | 19 ft | 7 kts | 178° |
| 2026-05-05 03:25 | 25.78982 | -80.27486 | 21 ft | 8 kts | 177° |
| 2026-05-05 03:25 | 25.78925 | -80.27494 | 19 ft | 8 kts | 209° |
| 2026-05-05 03:26 | 25.78901 | -80.27551 | 19 ft | 10 kts | 261° |
| 2026-05-05 03:26 | 25.78888 | -80.27628 | 19 ft | 11 kts | 258° |
| 2026-05-05 03:26 | 25.78879 | -80.27714 | 19 ft | 11 kts | 267° |
| 2026-05-05 03:26 | 25.78878 | -80.27728 | 19 ft | 3 kts | 268° |
| 2026-05-05 03:27 | 25.78877 | -80.27773 | 19 ft | 7 kts | 267° |
| 2026-05-05 03:27 | 25.78874 | -80.27836 | 19 ft | 9 kts | 266° |
| 2026-05-05 03:27 | 25.78870 | -80.27913 | 20 ft | 10 kts | 267° |
| 2026-05-05 03:27 | 25.78892 | -80.27987 | 21 ft | 11 kts | 299° |
| 2026-05-05 03:28 | 25.78930 | -80.28062 | 22 ft | 12 kts | 300° |
| 2026-05-05 03:28 | 25.78975 | -80.28150 | 20 ft | 14 kts | 298° |
| 2026-05-05 03:28 | 25.79021 | -80.28245 | 20 ft | 14 kts | 300° |
| 2026-05-05 03:28 | 25.79072 | -80.28342 | 19 ft | 15 kts | 301° |
| 2026-05-05 03:29 | 25.79124 | -80.28429 | 19 ft | 11 kts | 311° |
| 2026-05-05 03:29 | 25.79174 | -80.28507 | 18 ft | 14 kts | 299° |
| 2026-05-05 03:29 | 25.79221 | -80.28601 | 18 ft | 14 kts | 300° |
| 2026-05-05 03:29 | 25.79273 | -80.28700 | 18 ft | 15 kts | 300° |
| 2026-05-05 03:30 | 25.79327 | -80.28806 | 18 ft | 16 kts | 299° |
| 2026-05-05 03:30 | 25.79383 | -80.28916 | 18 ft | 17 kts | 299° |
| 2026-05-05 03:30 | 25.79435 | -80.29019 | 19 ft | 13 kts | 299° |
| 2026-05-05 03:30 | 25.79474 | -80.29073 | 19 ft | 6 kts | 332° |
| 2026-05-05 03:31 | 25.79524 | -80.29080 | 19 ft | 9 kts | 356° |
| 2026-05-05 03:31 | 25.79589 | -80.29084 | 19 ft | 10 kts | 358° |
| 2026-05-05 03:31 | 25.79664 | -80.29087 | 21 ft | 11 kts | 359° |
| 2026-05-05 03:31 | 25.79710 | -80.29043 | 19 ft | 7 kts | 74° |
| 2026-05-05 03:32 | 25.79745 | -80.29001 | 20 ft | 7 kts | 10° |
| 2026-05-05 03:32 | 25.79798 | -80.29003 | 19 ft | 8 kts | 355° |
| 2026-05-05 03:32 | 25.79814 | -80.29026 | 19 ft | 4 kts | 270° |
| 2026-05-05 03:32 | 25.79814 | -80.29047 | 20 ft | 2 kts | 272° |
| 2026-05-05 03:33 | 25.79814 | -80.29048 | 20 ft | 0 kts | 272° |
| 2026-05-05 03:42 | 25.79816 | -80.29072 | 19 ft | 4 kts | 284° |
| 2026-05-05 03:42 | 25.79840 | -80.29094 | 19 ft | 6 kts | 335° |
| 2026-05-05 03:43 | 25.79900 | -80.29099 | 20 ft | 9 kts | 358° |
| 2026-05-05 03:43 | 25.79969 | -80.29105 | 19 ft | 10 kts | 347° |
| 2026-05-05 03:43 | 25.80001 | -80.29160 | 20 ft | 9 kts | 274° |
| 2026-05-05 03:43 | 25.79998 | -80.29239 | 20 ft | 11 kts | 266° |
| 2026-05-05 03:44 | 25.79993 | -80.29330 | 19 ft | 13 kts | 266° |
| 2026-05-05 03:44 | 25.79991 | -80.29433 | 18 ft | 14 kts | 267° |
| 2026-05-05 03:44 | 25.79986 | -80.29546 | 18 ft | 15 kts | 267° |
| 2026-05-05 03:44 | 25.79980 | -80.29666 | 18 ft | 15 kts | 267° |
| 2026-05-05 03:45 | 25.79976 | -80.29769 | 18 ft | 11 kts | 267° |
| 2026-05-05 03:45 | 25.79974 | -80.29824 | 18 ft | 5 kts | 267° |
| 2026-05-05 03:45 | 25.79972 | -80.29869 | 17 ft | 5 kts | 267° |
| 2026-05-05 03:45 | 25.79972 | -80.29872 | 17 ft | 0 kts | 268° |
| 2026-05-05 03:46 | 25.79972 | -80.29874 | 17 ft | 2 kts | 268° |
| 2026-05-05 03:46 | 25.79971 | -80.29904 | 17 ft | 6 kts | 267° |
| 2026-05-05 03:47 | 25.79970 | -80.29937 | 17 ft | 0 kts | 273° |
| 2026-05-05 03:48 | 25.79971 | -80.29940 | 17 ft | 3 kts | 273° |
| 2026-05-05 03:48 | 25.79977 | -80.29988 | 17 ft | 8 kts | 281° |
| 2026-05-05 03:48 | 25.79989 | -80.30053 | 17 ft | 9 kts | 281° |
| 2026-05-05 03:48 | 25.80014 | -80.30117 | 18 ft | 9 kts | 317° |
| 2026-05-05 03:49 | 25.80068 | -80.30131 | 18 ft | 5 kts | 11° |
| 2026-05-05 03:49 | 25.80073 | -80.30119 | 18 ft | 1 kts | 73° |
| 2026-05-05 03:49 | 25.80072 | -80.30115 | 18 ft | 0 kts | 88° |
| 2026-05-05 03:49 | 25.80073 | -80.30091 | 17 ft | 11 kts | 88° |
| 2026-05-05 03:50 | 25.80086 | -80.29764 | 17 ft | 73 kts | 87° |
| 2026-05-05 03:50 | 25.80118 | -80.28998 | 21 ft | 124 kts | 87° |
| 2026-05-05 03:50 | 25.80163 | -80.27869 | 31 ft | 165 kts | 86° |
| 2026-05-05 03:50 | 25.80211 | -80.26615 | 600 ft | 160 kts | 85° |
| 2026-05-05 03:51 | 25.80302 | -80.25394 | 1203 ft | 160 kts | 85° |
| 2026-05-05 03:51 | 25.80357 | -80.24108 | 1636 ft | 173 kts | 88° |
| 2026-05-05 03:51 | 25.80409 | -80.22721 | 1981 ft | 188 kts | 86° |
| 2026-05-05 03:51 | 25.80512 | -80.21196 | 2273 ft | 209 kts | 85° |
| 2026-05-05 03:52 | 25.80644 | -80.19498 | 2474 ft | 235 kts | 81° |
| 2026-05-05 03:52 | 25.81237 | -80.17736 | 2963 ft | 252 kts | 57° |
| 2026-05-05 03:52 | 25.82537 | -80.16400 | 3611 ft | 262 kts | 28° |
| 2026-05-05 03:52 | 25.84299 | -80.15863 | 4358 ft | 267 kts | 5° |
| 2026-05-05 03:53 | 25.85537 | -80.15775 | 4889 ft | 270 kts | 1° |
| 2026-05-05 03:53 | 25.87424 | -80.15726 | 5652 ft | 273 kts | 359° |
| 2026-05-05 03:53 | 25.89337 | -80.15801 | 6407 ft | 276 kts | 347° |
| 2026-05-05 03:53 | 25.91211 | -80.16312 | 7138 ft | 280 kts | 340° |
| 2026-05-05 03:54 | 25.93078 | -80.16960 | 7925 ft | 283 kts | 339° |
| 2026-05-05 03:54 | 25.94963 | -80.17633 | 8765 ft | 286 kts | 339° |
| 2026-05-05 03:54 | 25.96873 | -80.18312 | 9588 ft | 290 kts | 338° |
| 2026-05-05 03:54 | 25.98837 | -80.18929 | 10307 ft | 299 kts | 344° |
| 2026-05-05 03:55 | 26.00973 | -80.19277 | 10649 ft | 321 kts | 350° |
| 2026-05-05 03:55 | 26.03265 | -80.19522 | 10945 ft | 341 kts | 351° |
| 2026-05-05 03:55 | 26.05697 | -80.19760 | 11224 ft | 360 kts | 351° |
| 2026-05-05 03:55 | 26.08236 | -80.20010 | 11582 ft | 372 kts | 351° |
| 2026-05-05 03:56 | 26.10841 | -80.20268 | 12142 ft | 378 kts | 351° |
| 2026-05-05 03:56 | 26.13472 | -80.20533 | 12759 ft | 382 kts | 351° |
| 2026-05-05 03:56 | 26.16127 | -80.20803 | 13387 ft | 385 kts | 351° |
| 2026-05-05 03:56 | 26.18802 | -80.21076 | 13995 ft | 387 kts | 351° |
| 2026-05-05 03:57 | 26.21500 | -80.21330 | 14505 ft | 391 kts | 351° |
| 2026-05-05 03:57 | 26.24222 | -80.21574 | 15056 ft | 394 kts | 351° |
| 2026-05-05 03:57 | 26.26965 | -80.21818 | 15564 ft | 397 kts | 351° |
| 2026-05-05 03:57 | 26.29724 | -80.22064 | 16104 ft | 399 kts | 351° |
| 2026-05-05 03:58 | 26.32505 | -80.22313 | 16662 ft | 402 kts | 351° |
| 2026-05-05 03:58 | 26.35302 | -80.22563 | 17188 ft | 405 kts | 350° |
| 2026-05-05 03:58 | 26.38068 | -80.22818 | 17701 ft | 407 kts | 349° |
| 2026-05-05 03:58 | 26.40904 | -80.23104 | 18212 ft | 409 kts | 349° |
| 2026-05-05 03:59 | 26.43747 | -80.23396 | 18651 ft | 412 kts | 349° |
| 2026-05-05 03:59 | 26.46606 | -80.23691 | 19110 ft | 414 kts | 349° |
| 2026-05-05 03:59 | 26.49481 | -80.23987 | 19554 ft | 416 kts | 349° |
| 2026-05-05 03:59 | 26.52368 | -80.24285 | 19995 ft | 418 kts | 349° |
| 2026-05-05 04:00 | 26.55270 | -80.24586 | 20437 ft | 420 kts | 348° |
| 2026-05-05 04:00 | 26.58158 | -80.24992 | 20866 ft | 420 kts | 346° |
| 2026-05-05 04:00 | 26.61069 | -80.25471 | 21304 ft | 421 kts | 346° |
| 2026-05-05 04:00 | 26.63973 | -80.25960 | 21751 ft | 423 kts | 346° |
| 2026-05-05 04:01 | 26.66893 | -80.26452 | 22185 ft | 425 kts | 346° |
| 2026-05-05 04:01 | 26.69812 | -80.26999 | 22608 ft | 424 kts | 342° |
| 2026-05-05 04:01 | 26.72633 | -80.27910 | 23033 ft | 422 kts | 335° |
| 2026-05-05 04:01 | 26.75392 | -80.29026 | 23442 ft | 423 kts | 334° |
| 2026-05-05 04:02 | 26.78150 | -80.30185 | 23825 ft | 424 kts | 334° |
| 2026-05-05 04:02 | 26.80920 | -80.31351 | 24179 ft | 426 kts | 334° |
| 2026-05-05 04:02 | 26.83697 | -80.32519 | 24540 ft | 427 kts | 334° |
| 2026-05-05 04:02 | 26.86484 | -80.33690 | 24863 ft | 430 kts | 334° |
| 2026-05-05 04:03 | 26.89291 | -80.34868 | 25200 ft | 432 kts | 334° |
| 2026-05-05 04:03 | 26.92108 | -80.36049 | 25562 ft | 432 kts | 334° |
| 2026-05-05 04:03 | 26.94933 | -80.37219 | 25932 ft | 434 kts | 334° |
| 2026-05-05 04:03 | 26.97773 | -80.38367 | 26279 ft | 435 kts | 335° |
| 2026-05-05 04:04 | 27.00622 | -80.39515 | 26626 ft | 436 kts | 335° |
| 2026-05-05 04:04 | 27.03480 | -80.40666 | 26972 ft | 437 kts | 335° |
| 2026-05-05 04:04 | 27.06341 | -80.41820 | 27306 ft | 438 kts | 335° |
| 2026-05-05 04:04 | 27.09207 | -80.42990 | 27635 ft | 438 kts | 334° |
| 2026-05-05 04:05 | 27.12051 | -80.44223 | 27949 ft | 439 kts | 333° |
| 2026-05-05 04:05 | 27.14899 | -80.45480 | 28305 ft | 440 kts | 333° |
| 2026-05-05 04:05 | 27.17754 | -80.46744 | 28601 ft | 442 kts | 333° |
| 2026-05-05 04:05 | 27.20577 | -80.47993 | 28902 ft | 443 kts | 333° |
| 2026-05-05 04:06 | 27.23449 | -80.49264 | 29217 ft | 444 kts | 333° |
| 2026-05-05 04:06 | 27.26325 | -80.50536 | 29509 ft | 445 kts | 333° |
| 2026-05-05 04:06 | 27.29210 | -80.51813 | 29793 ft | 446 kts | 333° |
| 2026-05-05 04:06 | 27.32103 | -80.53094 | 30067 ft | 447 kts | 333° |
| 2026-05-05 04:07 | 27.34991 | -80.54372 | 30467 ft | 444 kts | 333° |
| 2026-05-05 04:07 | 27.37858 | -80.55581 | 31059 ft | 437 kts | 335° |
| 2026-05-05 04:07 | 27.40710 | -80.56721 | 31498 ft | 434 kts | 335° |
| 2026-05-05 04:07 | 27.43552 | -80.57846 | 31843 ft | 432 kts | 335° |
| 2026-05-05 04:08 | 27.46385 | -80.58968 | 32190 ft | 431 kts | 335° |
| 2026-05-05 04:08 | 27.49208 | -80.60089 | 32552 ft | 429 kts | 335° |
| 2026-05-05 04:08 | 27.52020 | -80.61205 | 32921 ft | 427 kts | 335° |
| 2026-05-05 04:08 | 27.54814 | -80.62317 | 33302 ft | 425 kts | 335° |
| 2026-05-05 04:09 | 27.57598 | -80.63425 | 33652 ft | 423 kts | 334° |
| 2026-05-05 04:09 | 27.60369 | -80.64529 | 34006 ft | 421 kts | 334° |
| 2026-05-05 04:09 | 27.63129 | -80.65629 | 34307 ft | 420 kts | 334° |
| 2026-05-05 04:09 | 27.65880 | -80.66727 | 34562 ft | 419 kts | 334° |
| 2026-05-05 04:10 | 27.68626 | -80.67823 | 34807 ft | 419 kts | 334° |
| 2026-05-05 04:10 | 27.71373 | -80.68920 | 35054 ft | 418 kts | 334° |
| 2026-05-05 04:10 | 27.74110 | -80.70014 | 35303 ft | 417 kts | 334° |
| 2026-05-05 04:10 | 27.76845 | -80.71107 | 35602 ft | 416 kts | 334° |
| 2026-05-05 04:11 | 27.79567 | -80.72195 | 35897 ft | 414 kts | 333° |
| 2026-05-05 04:11 | 27.82281 | -80.73281 | 36145 ft | 413 kts | 333° |
| 2026-05-05 04:11 | 27.84992 | -80.74367 | 36358 ft | 413 kts | 333° |
| 2026-05-05 04:11 | 27.87699 | -80.75452 | 36564 ft | 413 kts | 333° |
| 2026-05-05 04:12 | 27.90370 | -80.76523 | 36777 ft | 413 kts | 333° |
| 2026-05-05 04:12 | 27.93072 | -80.77606 | 36986 ft | 412 kts | 333° |
| 2026-05-05 04:12 | 27.95775 | -80.78691 | 37196 ft | 412 kts | 333° |
| 2026-05-05 04:12 | 27.98470 | -80.79772 | 37408 ft | 411 kts | 332° |
| 2026-05-05 04:13 | 28.01162 | -80.80854 | 37612 ft | 411 kts | 332° |
| 2026-05-05 04:13 | 28.03853 | -80.81935 | 37819 ft | 410 kts | 332° |
| 2026-05-05 04:13 | 28.06542 | -80.83016 | 38075 ft | 410 kts | 332° |
| 2026-05-05 04:13 | 28.09230 | -80.84098 | 38234 ft | 411 kts | 332° |
| 2026-05-05 04:14 | 28.11922 | -80.85182 | 38372 ft | 411 kts | 332° |
| 2026-05-05 04:14 | 28.14616 | -80.86267 | 38565 ft | 410 kts | 331° |
| 2026-05-05 04:14 | 28.17304 | -80.87349 | 38742 ft | 410 kts | 331° |
| 2026-05-05 04:14 | 28.19990 | -80.88432 | 38895 ft | 410 kts | 331° |
| 2026-05-05 04:15 | 28.22675 | -80.89515 | 39034 ft | 410 kts | 331° |
| 2026-05-05 04:15 | 28.25365 | -80.90602 | 39061 ft | 411 kts | 331° |
| 2026-05-05 04:15 | 28.30752 | -80.92774 | 39071 ft | 409 kts | 332° |
| 2026-05-05 04:16 | 28.36104 | -80.94938 | 39070 ft | 407 kts | 332° |
| 2026-05-05 04:16 | 28.41451 | -80.97105 | 39071 ft | 408 kts | 331° |
| 2026-05-05 04:17 | 28.46773 | -80.99262 | 39070 ft | 409 kts | 331° |
| 2026-05-05 04:17 | 28.52131 | -81.01435 | 39075 ft | 409 kts | 331° |
| 2026-05-05 04:18 | 28.57492 | -81.03612 | 39078 ft | 409 kts | 331° |
| 2026-05-05 04:18 | 28.62848 | -81.05789 | 39087 ft | 409 kts | 331° |
| 2026-05-05 04:19 | 28.68211 | -81.07972 | 39104 ft | 410 kts | 332° |
| 2026-05-05 04:19 | 28.73604 | -81.10171 | 39092 ft | 413 kts | 332° |
| 2026-05-05 04:20 | 28.79029 | -81.12383 | 39091 ft | 414 kts | 332° |
| 2026-05-05 04:20 | 28.84456 | -81.14598 | 39094 ft | 414 kts | 332° |
| 2026-05-05 04:21 | 28.89878 | -81.16813 | 39102 ft | 414 kts | 332° |
| 2026-05-05 04:21 | 28.95521 | -81.18373 | 39106 ft | 429 kts | 344° |
| 2026-05-05 04:22 | 28.98442 | -81.18508 | 39131 ft | 441 kts | 353° |
| 2026-05-05 04:22 | 29.01528 | -81.18095 | 39110 ft | 455 kts | 2° |
| 2026-05-05 04:22 | 29.04615 | -81.17065 | 39105 ft | 468 kts | 11° |
| 2026-05-05 04:22 | 29.07645 | -81.15627 | 39105 ft | 475 kts | 14° |
| 2026-05-05 04:23 | 29.13593 | -81.12274 | 39101 ft | 480 kts | 17° |
| 2026-05-05 04:23 | 29.19526 | -81.08769 | 39100 ft | 480 kts | 17° |
| 2026-05-05 04:24 | 29.25487 | -81.05315 | 39114 ft | 479 kts | 17° |
| 2026-05-05 04:25 | 29.34422 | -81.00232 | 39097 ft | 478 kts | 17° |
| 2026-05-05 04:25 | 29.40385 | -80.96851 | 39097 ft | 478 kts | 17° |
| 2026-05-05 04:26 | 29.46336 | -80.93468 | 39099 ft | 478 kts | 17° |
| 2026-05-05 04:26 | 29.52288 | -80.90079 | 39142 ft | 478 kts | 18° |
| 2026-05-05 04:27 | 29.58252 | -80.86679 | 39102 ft | 479 kts | 18° |
| 2026-05-05 04:27 | 29.64226 | -80.83265 | 39102 ft | 479 kts | 18° |
| 2026-05-05 04:28 | 29.70191 | -80.79852 | 39099 ft | 479 kts | 18° |
| 2026-05-05 04:28 | 29.76154 | -80.76436 | 39102 ft | 479 kts | 18° |
| 2026-05-05 04:29 | 29.82120 | -80.73014 | 39106 ft | 478 kts | 18° |
| 2026-05-05 04:29 | 29.88060 | -80.69601 | 39105 ft | 477 kts | 18° |
| 2026-05-05 04:30 | 29.93963 | -80.66207 | 39104 ft | 477 kts | 18° |
| 2026-05-05 04:30 | 29.99902 | -80.62788 | 39104 ft | 477 kts | 18° |
| 2026-05-05 04:31 | 30.05841 | -80.59364 | 39102 ft | 477 kts | 18° |
| 2026-05-05 04:31 | 30.11784 | -80.55932 | 39106 ft | 477 kts | 18° |
| 2026-05-05 04:32 | 30.17700 | -80.52512 | 39110 ft | 477 kts | 18° |
| 2026-05-05 04:32 | 30.23686 | -80.49051 | 39108 ft | 482 kts | 18° |
| 2026-05-05 04:33 | 30.29681 | -80.45575 | 39111 ft | 482 kts | 18° |
| 2026-05-05 04:33 | 30.35679 | -80.42091 | 39112 ft | 482 kts | 18° |
| 2026-05-05 04:34 | 30.41674 | -80.38604 | 39108 ft | 482 kts | 18° |
| 2026-05-05 04:34 | 30.47676 | -80.35109 | 39110 ft | 482 kts | 18° |
| 2026-05-05 04:35 | 30.53670 | -80.31615 | 39108 ft | 482 kts | 18° |
| 2026-05-05 04:35 | 30.59628 | -80.28137 | 39140 ft | 482 kts | 18° |
| 2026-05-05 04:36 | 30.65559 | -80.24666 | 39111 ft | 478 kts | 18° |
| 2026-05-05 04:36 | 30.71494 | -80.21189 | 39109 ft | 475 kts | 18° |
| 2026-05-05 04:37 | 30.77408 | -80.17725 | 39108 ft | 475 kts | 18° |
| 2026-05-05 04:37 | 30.83312 | -80.14264 | 39112 ft | 477 kts | 18° |
| 2026-05-05 04:38 | 30.89267 | -80.10768 | 39118 ft | 480 kts | 18° |
| 2026-05-05 04:38 | 30.95231 | -80.07257 | 39110 ft | 481 kts | 18° |
| 2026-05-05 04:39 | 31.01206 | -80.03732 | 39113 ft | 481 kts | 18° |
| 2026-05-05 04:39 | 31.07186 | -80.00200 | 39118 ft | 481 kts | 18° |
| 2026-05-05 04:40 | 31.13149 | -79.96674 | 39150 ft | 481 kts | 18° |
| 2026-05-05 04:40 | 31.19117 | -79.93142 | 39113 ft | 482 kts | 18° |
| 2026-05-05 04:41 | 31.25099 | -79.89596 | 39116 ft | 482 kts | 18° |
| 2026-05-05 04:41 | 31.31036 | -79.86071 | 39116 ft | 482 kts | 18° |
| 2026-05-05 04:42 | 31.36974 | -79.82540 | 39113 ft | 482 kts | 18° |
| 2026-05-05 04:42 | 31.42959 | -79.78978 | 39113 ft | 482 kts | 19° |
| 2026-05-05 04:43 | 31.48956 | -79.75407 | 39119 ft | 486 kts | 19° |
| 2026-05-05 04:43 | 31.55001 | -79.71798 | 39120 ft | 487 kts | 19° |
| 2026-05-05 04:44 | 31.61039 | -79.68184 | 39116 ft | 487 kts | 19° |
| 2026-05-05 04:44 | 31.67070 | -79.64571 | 39138 ft | 487 kts | 19° |
| 2026-05-05 04:45 | 31.72094 | -79.61559 | 39106 ft | 487 kts | 20° |
| 2026-05-05 04:45 | 31.78121 | -79.57939 | 39122 ft | 487 kts | 20° |
| 2026-05-05 04:46 | 31.84151 | -79.54312 | 39114 ft | 487 kts | 20° |
| 2026-05-05 04:46 | 31.90166 | -79.50689 | 39121 ft | 487 kts | 20° |
| 2026-05-05 04:47 | 31.96208 | -79.47045 | 39117 ft | 486 kts | 20° |
| 2026-05-05 04:47 | 32.02222 | -79.43412 | 39115 ft | 486 kts | 20° |
| 2026-05-05 04:48 | 32.08247 | -79.39770 | 39114 ft | 488 kts | 20° |
| 2026-05-05 04:48 | 32.14261 | -79.36129 | 39120 ft | 490 kts | 20° |
| 2026-05-05 04:49 | 32.20290 | -79.32469 | 39127 ft | 490 kts | 21° |
| 2026-05-05 04:49 | 32.26287 | -79.28822 | 39116 ft | 489 kts | 21° |
| 2026-05-05 04:50 | 32.32335 | -79.25141 | 39121 ft | 489 kts | 21° |
| 2026-05-05 04:50 | 32.38380 | -79.21457 | 39118 ft | 489 kts | 21° |
| 2026-05-05 04:51 | 32.44422 | -79.17769 | 39116 ft | 489 kts | 21° |
| 2026-05-05 04:51 | 32.50401 | -79.14114 | 39118 ft | 488 kts | 21° |
| 2026-05-05 04:52 | 32.56429 | -79.10423 | 39118 ft | 488 kts | 21° |
| 2026-05-05 04:52 | 32.62279 | -79.06837 | 39116 ft | 488 kts | 21° |
| 2026-05-05 04:53 | 32.68313 | -79.03132 | 39144 ft | 490 kts | 22° |
| 2026-05-05 04:53 | 32.74281 | -78.99462 | 39116 ft | 490 kts | 22° |
| 2026-05-05 04:54 | 32.80375 | -78.95707 | 39116 ft | 490 kts | 22° |
| 2026-05-05 04:54 | 32.86391 | -78.91994 | 39117 ft | 490 kts | 22° |
| 2026-05-05 04:55 | 32.92400 | -78.88280 | 39121 ft | 490 kts | 22° |
| 2026-05-05 04:55 | 32.98422 | -78.84553 | 39116 ft | 490 kts | 22° |
| 2026-05-05 04:56 | 33.04470 | -78.80803 | 39115 ft | 490 kts | 22° |
| 2026-05-05 04:56 | 33.10525 | -78.77044 | 39115 ft | 490 kts | 22° |
| 2026-05-05 04:57 | 33.16570 | -78.73284 | 39115 ft | 490 kts | 22° |
| 2026-05-05 04:57 | 33.22610 | -78.69523 | 39113 ft | 489 kts | 22° |
| 2026-05-05 04:58 | 33.28645 | -78.65758 | 39111 ft | 490 kts | 22° |
| 2026-05-05 04:58 | 33.34699 | -78.61976 | 39113 ft | 491 kts | 22° |
| 2026-05-05 04:59 | 33.40765 | -78.58180 | 39115 ft | 492 kts | 22° |
| 2026-05-05 04:59 | 33.46821 | -78.54384 | 39113 ft | 491 kts | 22° |
| 2026-05-05 05:00 | 33.52869 | -78.50588 | 39114 ft | 491 kts | 22° |
| 2026-05-05 05:00 | 33.58917 | -78.46785 | 39113 ft | 491 kts | 22° |
| 2026-05-05 05:01 | 33.64967 | -78.42976 | 39112 ft | 491 kts | 22° |
| 2026-05-05 05:01 | 33.71019 | -78.39159 | 39113 ft | 490 kts | 23° |
| 2026-05-05 05:02 | 33.77051 | -78.35348 | 39117 ft | 489 kts | 23° |
| 2026-05-05 05:02 | 33.83068 | -78.31542 | 39120 ft | 489 kts | 23° |
| 2026-05-05 05:03 | 33.89036 | -78.27760 | 39122 ft | 489 kts | 23° |
| 2026-05-05 05:03 | 33.95072 | -78.23929 | 39121 ft | 489 kts | 23° |
| 2026-05-05 05:04 | 34.01088 | -78.20104 | 39129 ft | 488 kts | 23° |
| 2026-05-05 05:04 | 34.07099 | -78.16277 | 39119 ft | 488 kts | 23° |
| 2026-05-05 05:05 | 34.13103 | -78.12448 | 39116 ft | 488 kts | 23° |
| 2026-05-05 05:05 | 34.19112 | -78.08609 | 39118 ft | 488 kts | 23° |
| 2026-05-05 05:06 | 34.25112 | -78.04769 | 39117 ft | 488 kts | 23° |
| 2026-05-05 05:06 | 34.31105 | -78.00928 | 39119 ft | 488 kts | 23° |
| 2026-05-05 05:07 | 34.37099 | -77.97081 | 39120 ft | 488 kts | 23° |
| 2026-05-05 05:07 | 34.43045 | -77.93258 | 39118 ft | 488 kts | 23° |
| 2026-05-05 05:08 | 34.49039 | -77.89398 | 39108 ft | 488 kts | 23° |
| 2026-05-05 05:08 | 34.55075 | -77.85504 | 39110 ft | 488 kts | 23° |
| 2026-05-05 05:09 | 34.61028 | -77.81657 | 39111 ft | 488 kts | 24° |
| 2026-05-05 05:09 | 34.67013 | -77.77783 | 39118 ft | 487 kts | 24° |
| 2026-05-05 05:10 | 34.72998 | -77.73902 | 39119 ft | 487 kts | 24° |
| 2026-05-05 05:10 | 34.78974 | -77.70022 | 39119 ft | 487 kts | 24° |
| 2026-05-05 05:11 | 34.84943 | -77.66139 | 39119 ft | 487 kts | 24° |
| 2026-05-05 05:11 | 34.90913 | -77.62250 | 39122 ft | 486 kts | 24° |
| 2026-05-05 05:12 | 34.96883 | -77.58353 | 39114 ft | 486 kts | 24° |
| 2026-05-05 05:12 | 35.02836 | -77.54461 | 39115 ft | 487 kts | 24° |
| 2026-05-05 05:13 | 35.08819 | -77.50543 | 39111 ft | 487 kts | 24° |
| 2026-05-05 05:13 | 35.14784 | -77.46630 | 39105 ft | 487 kts | 24° |
| 2026-05-05 05:14 | 35.20761 | -77.42702 | 39103 ft | 487 kts | 24° |
| 2026-05-05 05:14 | 35.26723 | -77.38778 | 39105 ft | 487 kts | 24° |
| 2026-05-05 05:15 | 35.32691 | -77.34843 | 39104 ft | 487 kts | 24° |
| 2026-05-05 05:15 | 35.38648 | -77.30909 | 39097 ft | 487 kts | 24° |
| 2026-05-05 05:16 | 35.44609 | -77.26965 | 39088 ft | 487 kts | 24° |
| 2026-05-05 05:16 | 35.50562 | -77.23020 | 39105 ft | 487 kts | 24° |
| 2026-05-05 05:17 | 35.56541 | -77.19052 | 39130 ft | 488 kts | 24° |
| 2026-05-05 05:17 | 35.62467 | -77.15112 | 39107 ft | 488 kts | 24° |
| 2026-05-05 05:18 | 35.68487 | -77.11102 | 39108 ft | 488 kts | 24° |
| 2026-05-05 05:18 | 35.74426 | -77.07139 | 39102 ft | 488 kts | 24° |
| 2026-05-05 05:19 | 35.80394 | -77.03151 | 39105 ft | 488 kts | 24° |
| 2026-05-05 05:19 | 35.86352 | -76.99162 | 39088 ft | 488 kts | 24° |
| 2026-05-05 05:20 | 35.92323 | -76.95158 | 39086 ft | 487 kts | 24° |
| 2026-05-05 05:20 | 35.98276 | -76.91160 | 39081 ft | 487 kts | 24° |
| 2026-05-05 05:21 | 36.04227 | -76.87156 | 39096 ft | 487 kts | 24° |
| 2026-05-05 05:21 | 36.10187 | -76.83138 | 39084 ft | 488 kts | 24° |
| 2026-05-05 05:22 | 36.16150 | -76.79113 | 39084 ft | 489 kts | 24° |
| 2026-05-05 05:22 | 36.22118 | -76.75077 | 39077 ft | 489 kts | 24° |
| 2026-05-05 05:23 | 36.28082 | -76.71037 | 39076 ft | 488 kts | 24° |
| 2026-05-05 05:23 | 36.34030 | -76.66999 | 39062 ft | 488 kts | 24° |
| 2026-05-05 05:24 | 36.39987 | -76.62949 | 39055 ft | 488 kts | 24° |
| 2026-05-05 05:24 | 36.45935 | -76.58898 | 39053 ft | 488 kts | 24° |
| 2026-05-05 05:25 | 36.51827 | -76.54879 | 39051 ft | 487 kts | 25° |
| 2026-05-05 05:25 | 36.57766 | -76.50820 | 39069 ft | 486 kts | 25° |
| 2026-05-05 05:26 | 36.63691 | -76.46763 | 39070 ft | 488 kts | 25° |
| 2026-05-05 05:26 | 36.69647 | -76.42679 | 39082 ft | 488 kts | 25° |
| 2026-05-05 05:27 | 36.75588 | -76.38596 | 39065 ft | 487 kts | 25° |
| 2026-05-05 05:27 | 36.84482 | -76.32471 | 39044 ft | 486 kts | 25° |
| 2026-05-05 05:28 | 36.90407 | -76.28382 | 39045 ft | 487 kts | 25° |
| 2026-05-05 05:28 | 36.96315 | -76.24297 | 39046 ft | 485 kts | 25° |
| 2026-05-05 05:29 | 37.02168 | -76.20241 | 39047 ft | 484 kts | 25° |
| 2026-05-05 05:29 | 37.08065 | -76.16149 | 39026 ft | 484 kts | 25° |
| 2026-05-05 05:30 | 37.13956 | -76.12053 | 39036 ft | 484 kts | 25° |
| 2026-05-05 05:30 | 37.19841 | -76.07953 | 39029 ft | 484 kts | 25° |
| 2026-05-05 05:31 | 37.25725 | -76.03846 | 39033 ft | 483 kts | 25° |
| 2026-05-05 05:31 | 37.31601 | -75.99738 | 39025 ft | 483 kts | 25° |
| 2026-05-05 05:32 | 37.37477 | -75.95623 | 39021 ft | 483 kts | 25° |
| 2026-05-05 05:32 | 37.43333 | -75.91513 | 39021 ft | 482 kts | 25° |
| 2026-05-05 05:33 | 37.49187 | -75.87399 | 39022 ft | 482 kts | 25° |
| 2026-05-05 05:33 | 37.55044 | -75.83274 | 39027 ft | 482 kts | 25° |
| 2026-05-05 05:34 | 37.60903 | -75.79141 | 39028 ft | 482 kts | 25° |
| 2026-05-05 05:34 | 37.66745 | -75.75013 | 39030 ft | 482 kts | 25° |
| 2026-05-05 05:35 | 37.72594 | -75.70871 | 39023 ft | 481 kts | 25° |
| 2026-05-05 05:35 | 37.78390 | -75.66760 | 39023 ft | 481 kts | 25° |
| 2026-05-05 05:36 | 37.84206 | -75.62512 | 39010 ft | 484 kts | 30° |
| 2026-05-05 05:36 | 37.89819 | -75.57773 | 39018 ft | 485 kts | 31° |
| 2026-05-05 05:37 | 37.94454 | -75.53748 | 39016 ft | 486 kts | 31° |
| 2026-05-05 05:37 | 38.00000 | -75.48894 | 39005 ft | 486 kts | 31° |
| 2026-05-05 05:38 | 38.05594 | -75.44011 | 38993 ft | 487 kts | 31° |
| 2026-05-05 05:38 | 38.11266 | -75.39311 | 38994 ft | 487 kts | 29° |
| 2026-05-05 05:39 | 38.16977 | -75.34696 | 38996 ft | 487 kts | 29° |
| 2026-05-05 05:39 | 38.22737 | -75.30172 | 39004 ft | 484 kts | 23° |
| 2026-05-05 05:40 | 38.28954 | -75.27403 | 39006 ft | 474 kts | 8° |
| 2026-05-05 05:40 | 38.35468 | -75.25828 | 39006 ft | 473 kts | 5° |
| 2026-05-05 05:41 | 38.41968 | -75.24500 | 39021 ft | 473 kts | 5° |
| 2026-05-05 05:41 | 38.48371 | -75.23202 | 38997 ft | 471 kts | 5° |
| 2026-05-05 05:42 | 38.54842 | -75.21863 | 38989 ft | 471 kts | 5° |
| 2026-05-05 05:42 | 38.61347 | -75.20499 | 38984 ft | 471 kts | 5° |
| 2026-05-05 05:43 | 38.67739 | -75.18885 | 38980 ft | 475 kts | 13° |
| 2026-05-05 05:43 | 38.73479 | -75.15383 | 38982 ft | 484 kts | 31° |
| 2026-05-05 05:44 | 38.78997 | -75.10158 | 38980 ft | 486 kts | 34° |
| 2026-05-05 05:44 | 38.84378 | -75.04875 | 38992 ft | 487 kts | 34° |
| 2026-05-05 05:45 | 38.89754 | -74.99587 | 38972 ft | 488 kts | 34° |
| 2026-05-05 05:45 | 38.95147 | -74.94275 | 38969 ft | 488 kts | 34° |
| 2026-05-05 05:46 | 39.00537 | -74.88956 | 38980 ft | 488 kts | 34° |
| 2026-05-05 05:46 | 39.05924 | -74.83632 | 38529 ft | 490 kts | 34° |
| 2026-05-05 05:47 | 39.08630 | -74.80953 | 37879 ft | 490 kts | 34° |
| 2026-05-05 05:47 | 39.11286 | -74.78199 | 37205 ft | 491 kts | 37° |
| 2026-05-05 05:47 | 39.13861 | -74.75428 | 36578 ft | 491 kts | 37° |
| 2026-05-05 05:47 | 39.16481 | -74.72589 | 35949 ft | 490 kts | 37° |
| 2026-05-05 05:48 | 39.19088 | -74.69765 | 35330 ft | 489 kts | 38° |
| 2026-05-05 05:48 | 39.21691 | -74.66944 | 34704 ft | 488 kts | 38° |
| 2026-05-05 05:48 | 39.24289 | -74.64129 | 34086 ft | 487 kts | 38° |
| 2026-05-05 05:48 | 39.26880 | -74.61320 | 33379 ft | 486 kts | 38° |
| 2026-05-05 05:49 | 39.29468 | -74.58512 | 32504 ft | 487 kts | 39° |
| 2026-05-05 05:49 | 39.32068 | -74.55689 | 31602 ft | 490 kts | 39° |
| 2026-05-05 05:49 | 39.34685 | -74.52846 | 30677 ft | 493 kts | 39° |
| 2026-05-05 05:49 | 39.37316 | -74.49984 | 29695 ft | 496 kts | 39° |
| 2026-05-05 05:50 | 39.39965 | -74.47100 | 28709 ft | 497 kts | 39° |
| 2026-05-05 05:50 | 39.42603 | -74.44224 | 27914 ft | 495 kts | 39° |
| 2026-05-05 05:50 | 39.45212 | -74.41376 | 27340 ft | 487 kts | 39° |
| 2026-05-05 05:50 | 39.47792 | -74.38556 | 26588 ft | 484 kts | 39° |
| 2026-05-05 05:51 | 39.50359 | -74.35749 | 25895 ft | 480 kts | 39° |
| 2026-05-05 05:51 | 39.52906 | -74.32960 | 25143 ft | 478 kts | 39° |
| 2026-05-05 05:51 | 39.55440 | -74.30184 | 24440 ft | 476 kts | 39° |
| 2026-05-05 05:51 | 39.57950 | -74.27431 | 23833 ft | 471 kts | 39° |
| 2026-05-05 05:52 | 39.60440 | -74.24697 | 23088 ft | 468 kts | 39° |
| 2026-05-05 05:52 | 39.62915 | -74.21977 | 22390 ft | 463 kts | 39° |
| 2026-05-05 05:52 | 39.65347 | -74.19303 | 21450 ft | 454 kts | 39° |
| 2026-05-05 05:52 | 39.67715 | -74.16696 | 20287 ft | 452 kts | 39° |
| 2026-05-05 05:53 | 39.70101 | -74.14066 | 19555 ft | 446 kts | 39° |
| 2026-05-05 05:53 | 39.72452 | -74.11472 | 18626 ft | 440 kts | 39° |
| 2026-05-05 05:53 | 39.74771 | -74.08912 | 17411 ft | 436 kts | 39° |
| 2026-05-05 05:53 | 39.77057 | -74.06384 | 16360 ft | 426 kts | 39° |
| 2026-05-05 05:54 | 39.79295 | -74.03906 | 15294 ft | 419 kts | 39° |
| 2026-05-05 05:54 | 39.81496 | -74.01469 | 14195 ft | 413 kts | 38° |
| 2026-05-05 05:54 | 39.83690 | -73.99116 | 13207 ft | 403 kts | 33° |
| 2026-05-05 05:54 | 39.86012 | -73.97243 | 12737 ft | 386 kts | 27° |
| 2026-05-05 05:55 | 39.88316 | -73.95585 | 12534 ft | 371 kts | 25° |
| 2026-05-05 05:55 | 39.90538 | -73.94014 | 12358 ft | 356 kts | 25° |
| 2026-05-05 05:55 | 39.92672 | -73.92506 | 12209 ft | 343 kts | 25° |
| 2026-05-05 05:55 | 39.94731 | -73.91050 | 12058 ft | 331 kts | 25° |
| 2026-05-05 05:56 | 39.96717 | -73.89644 | 11895 ft | 319 kts | 25° |
| 2026-05-05 05:56 | 39.98649 | -73.88277 | 11564 ft | 315 kts | 24° |
| 2026-05-05 05:56 | 40.00562 | -73.86925 | 11210 ft | 313 kts | 25° |
| 2026-05-05 05:56 | 40.02437 | -73.85510 | 11008 ft | 308 kts | 27° |
| 2026-05-05 05:57 | 40.04269 | -73.84078 | 10986 ft | 307 kts | 27° |
| 2026-05-05 05:57 | 40.06104 | -73.82638 | 10987 ft | 308 kts | 27° |
| 2026-05-05 05:57 | 40.07938 | -73.81201 | 10988 ft | 308 kts | 27° |
| 2026-05-05 05:57 | 40.09777 | -73.79759 | 10988 ft | 308 kts | 27° |
| 2026-05-05 05:58 | 40.11612 | -73.78320 | 10990 ft | 308 kts | 27° |
| 2026-05-05 05:58 | 40.13448 | -73.76879 | 10990 ft | 308 kts | 28° |
| 2026-05-05 05:58 | 40.15281 | -73.75443 | 10990 ft | 308 kts | 28° |
| 2026-05-05 05:58 | 40.17115 | -73.74004 | 10990 ft | 308 kts | 27° |
| 2026-05-05 05:59 | 40.18952 | -73.72559 | 10992 ft | 307 kts | 28° |
| 2026-05-05 05:59 | 40.20757 | -73.71145 | 10986 ft | 307 kts | 27° |
| 2026-05-05 05:59 | 40.22599 | -73.69709 | 10981 ft | 308 kts | 27° |
| 2026-05-05 05:59 | 40.24435 | -73.68279 | 10791 ft | 307 kts | 27° |
| 2026-05-05 06:00 | 40.26270 | -73.66851 | 10537 ft | 306 kts | 27° |
| 2026-05-05 06:00 | 40.28100 | -73.65426 | 10287 ft | 306 kts | 27° |
| 2026-05-05 06:00 | 40.29919 | -73.63998 | 10075 ft | 302 kts | 27° |
| 2026-05-05 06:00 | 40.31711 | -73.62577 | 9826 ft | 301 kts | 27° |
| 2026-05-05 06:01 | 40.33505 | -73.61141 | 9561 ft | 302 kts | 27° |
| 2026-05-05 06:01 | 40.35299 | -73.59712 | 9301 ft | 302 kts | 27° |
| 2026-05-05 06:01 | 40.37090 | -73.58277 | 9035 ft | 301 kts | 27° |
| 2026-05-05 06:01 | 40.38878 | -73.56858 | 8784 ft | 300 kts | 27° |
| 2026-05-05 06:02 | 40.40667 | -73.55454 | 8513 ft | 299 kts | 27° |
| 2026-05-05 06:02 | 40.42452 | -73.54053 | 8267 ft | 299 kts | 27° |
| 2026-05-05 06:02 | 40.44236 | -73.52656 | 8008 ft | 298 kts | 27° |
| 2026-05-05 06:02 | 40.46017 | -73.51257 | 7767 ft | 297 kts | 27° |
| 2026-05-05 06:03 | 40.47790 | -73.49867 | 7521 ft | 297 kts | 27° |
| 2026-05-05 06:03 | 40.49566 | -73.48474 | 7272 ft | 296 kts | 27° |
| 2026-05-05 06:03 | 40.51331 | -73.47088 | 7023 ft | 296 kts | 27° |
| 2026-05-05 06:03 | 40.53150 | -73.45972 | 6778 ft | 289 kts | 9° |
| 2026-05-05 06:04 | 40.55113 | -73.45808 | 6543 ft | 280 kts | 351° |
| 2026-05-05 06:04 | 40.57043 | -73.46078 | 6302 ft | 279 kts | 347° |
| 2026-05-05 06:04 | 40.58974 | -73.46401 | 6053 ft | 279 kts | 347° |
| 2026-05-05 06:04 | 40.60905 | -73.46715 | 5804 ft | 280 kts | 347° |
| 2026-05-05 06:05 | 40.62838 | -73.47025 | 5550 ft | 280 kts | 347° |
| 2026-05-05 06:05 | 40.64767 | -73.47330 | 5297 ft | 279 kts | 347° |
| 2026-05-05 06:05 | 40.66697 | -73.47621 | 5039 ft | 279 kts | 347° |
| 2026-05-05 06:05 | 40.68610 | -73.47894 | 4800 ft | 274 kts | 347° |
| 2026-05-05 06:06 | 40.70479 | -73.48154 | 4619 ft | 265 kts | 347° |
| 2026-05-05 06:06 | 40.72281 | -73.48388 | 4517 ft | 254 kts | 347° |
| 2026-05-05 06:06 | 40.73980 | -73.48670 | 4394 ft | 235 kts | 337° |
| 2026-05-05 06:06 | 40.75334 | -73.49644 | 4268 ft | 216 kts | 313° |
| 2026-05-05 06:07 | 40.76423 | -73.50969 | 4039 ft | 209 kts | 306° |
| 2026-05-05 06:07 | 40.77174 | -73.52499 | 3788 ft | 191 kts | 279° |
| 2026-05-05 06:07 | 40.77234 | -73.54172 | 3539 ft | 179 kts | 258° |
| 2026-05-05 06:07 | 40.76913 | -73.55717 | 3303 ft | 172 kts | 249° |
| 2026-05-05 06:08 | 40.76498 | -73.57187 | 3053 ft | 170 kts | 247° |
| 2026-05-05 06:08 | 40.76080 | -73.58631 | 2795 ft | 168 kts | 247° |
| 2026-05-05 06:08 | 40.75676 | -73.60059 | 2540 ft | 165 kts | 247° |
| 2026-05-05 06:08 | 40.75295 | -73.61465 | 2335 ft | 159 kts | 247° |
| 2026-05-05 06:09 | 40.74938 | -73.62828 | 2200 ft | 156 kts | 248° |
| 2026-05-05 06:09 | 40.74578 | -73.64174 | 2071 ft | 155 kts | 247° |
| 2026-05-05 06:09 | 40.74220 | -73.65513 | 1964 ft | 154 kts | 248° |
| 2026-05-05 06:09 | 40.73844 | -73.66832 | 1839 ft | 153 kts | 241° |
| 2026-05-05 06:10 | 40.73219 | -73.67959 | 1786 ft | 152 kts | 229° |
| 2026-05-05 06:10 | 40.72509 | -73.68989 | 1764 ft | 151 kts | 225° |
| 2026-05-05 06:10 | 40.71720 | -73.69800 | 1694 ft | 137 kts | 216° |
| 2026-05-05 06:10 | 40.70940 | -73.70446 | 1491 ft | 129 kts | 215° |
| 2026-05-05 06:11 | 40.70171 | -73.71056 | 1342 ft | 130 kts | 213° |
| 2026-05-05 06:11 | 40.69389 | -73.71669 | 1162 ft | 131 kts | 213° |
| 2026-05-05 06:11 | 40.68611 | -73.72283 | 993 ft | 130 kts | 212° |
| 2026-05-05 06:11 | 40.67832 | -73.72894 | 802 ft | 130 kts | 211° |
| 2026-05-05 06:12 | 40.67063 | -73.73498 | 639 ft | 129 kts | 210° |
| 2026-05-05 06:12 | 40.66292 | -73.74103 | 432 ft | 127 kts | 210° |
| 2026-05-05 06:12 | 40.65547 | -73.74673 | 299 ft | 125 kts | 210° |
| 2026-05-05 06:12 | 40.64805 | -73.75268 | 123 ft | 125 kts | 209° |
| 2026-05-05 06:13 | 40.64068 | -73.75843 | 28 ft | 115 kts | 210° |
| 2026-05-05 06:13 | 40.63537 | -73.76259 | 26 ft | 61 kts | 211° |
| 2026-05-05 06:13 | 40.63272 | -73.76466 | 30 ft | 40 kts | 212° |
| 2026-05-05 06:13 | 40.63052 | -73.76656 | 27 ft | 36 kts | 221° |
| 2026-05-05 06:14 | 40.62944 | -73.76858 | 28 ft | 19 kts | 242° |
| 2026-05-05 06:14 | 40.62944 | -73.77004 | 31 ft | 16 kts | 298° |
| 2026-05-05 06:14 | 40.63003 | -73.77131 | 28 ft | 16 kts | 301° |
| 2026-05-05 06:14 | 40.63058 | -73.77254 | 31 ft | 17 kts | 300° |
| 2026-05-05 06:15 | 40.63122 | -73.77396 | 32 ft | 19 kts | 300° |
| 2026-05-05 06:15 | 40.63190 | -73.77545 | 34 ft | 19 kts | 301° |
| 2026-05-05 06:15 | 40.63263 | -73.77708 | 31 ft | 22 kts | 300° |
| 2026-05-05 06:15 | 40.63315 | -73.77820 | 31 ft | 5 kts | 307° |
| 2026-05-05 06:16 | 40.63351 | -73.77839 | 30 ft | 7 kts | 8° |
| 2026-05-05 06:16 | 40.63402 | -73.77791 | 30 ft | 12 kts | 37° |
| 2026-05-05 06:16 | 40.63487 | -73.77723 | 26 ft | 17 kts | 30° |
| 2026-05-05 06:16 | 40.63589 | -73.77642 | 29 ft | 13 kts | 31° |
| 2026-05-05 06:17 | 40.63653 | -73.77618 | 29 ft | 9 kts | 348° |
| 2026-05-05 06:17 | 40.63713 | -73.77657 | 28 ft | 11 kts | 352° |
| 2026-05-05 06:17 | 40.63783 | -73.77695 | 26 ft | 10 kts | 327° |
| 2026-05-05 06:17 | 40.63849 | -73.77755 | 27 ft | 12 kts | 325° |
| 2026-05-05 06:18 | 40.63920 | -73.77818 | 27 ft | 9 kts | 329° |
| 2026-05-05 06:18 | 40.63979 | -73.77862 | 27 ft | 11 kts | 330° |
| 2026-05-05 06:18 | 40.64020 | -73.77909 | 27 ft | 7 kts | 300° |
| 2026-05-05 06:18 | 40.64033 | -73.77953 | 27 ft | 3 kts | 290° |
| 2026-05-05 06:19 | 40.64038 | -73.77977 | 27 ft | 3 kts | 283° |
| 2026-05-05 06:19 | 40.64035 | -73.78012 | 27 ft | 5 kts | 252° |
| 2026-05-05 06:19 | 40.64022 | -73.78048 | 27 ft | 3 kts | 246° |
| 2026-05-05 06:19 | 40.64016 | -73.78068 | 27 ft | 2 kts | 247° |
| 2026-05-05 06:20 | 40.64013 | -73.78078 | 27 ft | 0 kts | 247° |